createdAt,value
2022-10-13T00:02:05.021Z,100021.72
2022-10-13T00:04:35.618Z,100025.38
2022-10-13T00:07:05.367Z,100024.47
2022-10-13T00:09:37.160Z,100017.13
2022-10-13T00:12:07.275Z,100026.91
2022-10-13T00:14:37.125Z,100035.41
2022-10-13T00:17:06.886Z,100022.97
2022-10-13T00:19:36.668Z,100028.72
2022-10-13T00:22:06.970Z,100035.31
2022-10-13T00:24:37.807Z,100036.06
2022-10-13T00:27:07.508Z,100023.13
2022-10-13T00:29:37.285Z,100026.91
2022-10-13T00:32:07.674Z,100023.66
2022-10-13T00:34:39.132Z,100027.16
2022-10-13T00:37:09.675Z,100032.28
2022-10-13T00:39:41.309Z,100029.63
2022-10-13T00:42:14.521Z,100040.97
2022-10-13T00:45:07.645Z,100040.22
2022-10-13T00:47:42.289Z,100042.47
2022-10-13T00:50:16.107Z,100040.09
2022-10-13T00:52:50.191Z,100042.75
2022-10-13T00:55:25.696Z,100044.00
2022-10-13T00:57:56.382Z,100039.50
2022-10-13T01:00:35.046Z,100043.81
2022-10-13T01:03:05.657Z,100041.31
2022-10-13T01:05:36.093Z,100047.88
2022-10-13T01:08:07.074Z,100052.03
2022-10-13T01:10:51.001Z,100067.09
2022-10-13T01:13:26.552Z,100052.16
2022-10-13T01:16:02.006Z,100053.81
2022-10-13T01:18:42.676Z,100064.91
2022-10-13T01:21:25.896Z,100061.16
2022-10-13T01:24:29.585Z,100059.75
2022-10-13T01:27:21.136Z,100059.41
2022-10-13T01:30:08.496Z,100056.81
2022-10-13T01:33:20.942Z,100067.66
2022-10-13T01:36:04.675Z,100060.09
2022-10-13T01:38:47.130Z,100061.91
2022-10-13T01:41:22.442Z,100064.84
2022-10-13T01:43:59.360Z,100067.59
2022-10-13T01:46:34.873Z,100060.19
2022-10-13T01:49:08.719Z,100065.09
2022-10-13T01:51:40.280Z,100063.38
2022-10-13T01:54:09.688Z,100055.81
2022-10-13T01:56:38.870Z,100063.50
2022-10-13T01:59:11.805Z,100072.31
2022-10-13T02:01:56.579Z,100064.91
2022-10-13T02:04:43.709Z,100066.38
2022-10-13T02:07:22.951Z,100064.34
2022-10-13T02:09:59.198Z,100063.81
2022-10-13T02:12:35.459Z,100076.31
2022-10-13T02:15:08.944Z,100075.00
2022-10-13T02:17:43.876Z,100066.50
2022-10-13T02:20:16.019Z,100075.91
2022-10-13T02:22:47.841Z,100088.81
2022-10-13T02:25:17.724Z,100067.50
2022-10-13T02:27:47.651Z,100079.84
2022-10-13T02:30:25.809Z,100075.91
2022-10-13T02:32:56.871Z,100077.97
2022-10-13T02:35:27.123Z,100066.72
2022-10-13T02:37:57.799Z,100072.31
2022-10-13T02:40:27.743Z,100077.25
2022-10-13T02:42:57.648Z,100088.44
2022-10-13T02:45:27.572Z,100087.34
2022-10-13T02:47:59.335Z,100079.66
2022-10-13T02:50:29.667Z,100079.31
2022-10-13T02:53:01.129Z,100076.22
2022-10-13T02:55:30.655Z,100074.06
2022-10-13T02:58:07.809Z,100091.63
2022-10-13T03:00:39.702Z,100080.94
2022-10-13T03:03:12.641Z,100076.53
2022-10-13T03:05:43.279Z,100087.38
2022-10-13T03:08:13.029Z,100091.63
2022-10-13T03:10:45.213Z,100097.78
2022-10-13T03:13:22.725Z,100087.84
2022-10-13T03:15:54.089Z,100095.25
2022-10-13T03:19:46.134Z,100098.75
2022-10-13T03:22:21.515Z,100092.72
2022-10-13T03:24:54.892Z,100099.81
2022-10-13T03:27:24.499Z,100098.28
2022-10-13T03:29:54.128Z,100107.19
2022-10-13T03:32:23.965Z,100102.59
2022-10-13T03:34:54.600Z,100103.75
2022-10-13T03:37:25.768Z,100097.84
2022-10-13T03:40:20.885Z,100105.06
2022-10-13T03:42:50.334Z,100108.81
2022-10-13T03:45:21.514Z,100103.34
2022-10-13T03:48:15.332Z,100116.63
2022-10-13T03:50:45.503Z,100111.66
2022-10-13T03:53:33.024Z,100108.75
2022-10-13T03:56:09.459Z,100113.91
2022-10-13T03:58:54.711Z,100109.38
2022-10-13T04:01:33.153Z,100126.28
2022-10-13T04:04:08.462Z,100118.88
2022-10-13T04:06:39.730Z,100115.03
2022-10-13T04:09:13.809Z,100125.50
2022-10-13T04:15:28.630Z,100124.72
2022-10-13T04:17:57.968Z,100124.72
2022-10-13T04:20:28.115Z,100122.44
2022-10-13T04:22:57.615Z,100137.38
2022-10-13T04:25:30.169Z,100135.56
2022-10-13T04:27:59.596Z,100133.13
2022-10-13T04:30:29.672Z,100134.59
2022-10-13T04:32:59.345Z,100124.56
2022-10-13T04:35:28.861Z,100127.44
2022-10-13T04:37:58.840Z,100133.72
2022-10-13T04:40:44.385Z,100143.25
2022-10-13T04:43:24.493Z,100133.75
2022-10-13T04:46:02.183Z,100143.84
2022-10-13T04:48:32.609Z,100146.03
2022-10-13T04:51:05.370Z,100140.44
2022-10-13T04:53:35.120Z,100136.72
2022-10-13T04:56:08.590Z,100152.88
2022-10-13T04:58:38.627Z,100149.59
2022-10-13T05:01:16.516Z,100156.31
2022-10-13T05:03:51.657Z,100160.34
2022-10-13T05:06:22.879Z,100158.78
2022-10-13T05:08:58.706Z,100153.75
2022-10-13T05:11:30.138Z,100160.38
2022-10-13T05:13:59.888Z,100162.28
2022-10-13T05:16:30.706Z,100163.94
2022-10-13T05:19:01.013Z,100175.75
2022-10-13T05:21:31.178Z,100172.31
2022-10-13T05:24:02.507Z,100167.44
2022-10-13T05:26:33.805Z,100176.38
2022-10-13T05:29:05.427Z,100160.44
2022-10-13T05:31:37.663Z,100168.88
2022-10-13T05:34:12.077Z,100169.16
2022-10-13T05:36:43.787Z,100163.22
2022-10-13T05:39:19.281Z,100171.88
2022-10-13T05:42:13.569Z,100170.63
2022-10-13T05:44:59.361Z,100169.16
2022-10-13T05:47:39.856Z,100168.03
2022-10-13T05:50:20.025Z,100158.59
2022-10-13T05:53:02.428Z,100169.75
2022-10-13T05:55:39.535Z,100169.84
2022-10-13T05:58:13.014Z,100173.84
2022-10-13T06:00:47.569Z,100153.03
2022-10-13T06:03:23.472Z,100149.13
2022-10-13T06:05:55.894Z,100162.13
2022-10-13T06:08:25.656Z,100156.25
2022-10-13T06:10:55.329Z,100162.38
2022-10-13T06:13:27.470Z,100150.75
2022-10-13T06:16:02.105Z,100161.38
2022-10-13T06:18:38.489Z,100162.00
2022-10-13T06:22:31.901Z,100159.28
2022-10-13T06:25:04.740Z,100153.56
2022-10-13T06:27:36.018Z,100148.13
2022-10-13T06:31:03.865Z,100153.16
2022-10-13T06:33:37.524Z,100149.34
2022-10-13T06:36:09.204Z,100148.91
2022-10-13T06:38:39.370Z,100144.78
2022-10-13T06:41:09.607Z,100141.75
2022-10-13T06:43:40.630Z,100154.13
2022-10-13T06:46:14.924Z,100160.53
2022-10-13T06:48:46.908Z,100167.72
2022-10-13T06:51:17.696Z,100172.16
2022-10-13T06:53:48.134Z,100161.75
2022-10-13T06:56:17.897Z,100167.72
2022-10-13T06:58:58.133Z,100174.13
2022-10-13T07:01:41.819Z,100178.13
2022-10-13T07:07:27.479Z,100175.94
2022-10-13T07:10:03.179Z,100178.53
2022-10-13T07:12:39.286Z,100179.75
2022-10-13T07:15:13.143Z,100182.50
2022-10-13T07:17:46.500Z,100180.09
2022-10-13T07:20:21.549Z,100177.19
2022-10-13T07:22:57.530Z,100182.69
2022-10-13T07:25:32.059Z,100183.47
2022-10-13T07:28:04.590Z,100182.50
2022-10-13T07:30:35.962Z,100185.88
2022-10-13T07:33:06.473Z,100184.50
2022-10-13T07:35:40.767Z,100189.09
2022-10-13T07:38:10.917Z,100176.28
2022-10-13T07:40:41.801Z,100178.69
2022-10-13T07:43:12.124Z,100180.25
2022-10-13T07:45:42.142Z,100180.22
2022-10-13T07:48:17.273Z,100181.44
2022-10-13T07:50:50.564Z,100181.13
2022-10-13T07:53:20.538Z,100189.69
2022-10-13T07:55:49.921Z,100182.97
2022-10-13T07:58:20.369Z,100200.34
2022-10-13T08:00:58.008Z,100212.00
2022-10-13T08:03:29.169Z,100188.00
2022-10-13T08:06:03.636Z,100196.72
2022-10-13T08:08:33.676Z,100198.25
2022-10-13T08:11:03.672Z,100194.00
2022-10-13T08:13:38.489Z,100198.22
2022-10-13T08:16:15.839Z,100200.63
2022-10-13T08:18:47.435Z,100195.06
2022-10-13T08:24:17.339Z,100193.63
2022-10-13T08:26:48.857Z,100191.75
2022-10-13T08:29:23.360Z,100192.47
2022-10-13T08:31:54.443Z,100199.63
2022-10-13T08:34:29.556Z,100198.66
2022-10-13T08:37:02.165Z,100201.88
2022-10-13T08:39:33.494Z,100211.69
2022-10-13T08:42:04.045Z,100212.47
2022-10-13T08:47:35.509Z,100213.63
2022-10-13T08:50:14.722Z,100189.41
2022-10-13T08:52:50.961Z,100192.19
2022-10-13T08:55:28.523Z,100188.81
2022-10-13T08:58:00.313Z,100187.63
2022-10-13T09:00:31.476Z,100197.13
2022-10-13T09:03:20.379Z,100193.31
2022-10-13T09:06:07.759Z,100196.53
2022-10-13T09:08:54.090Z,100194.09
2022-10-13T09:11:23.970Z,100199.34
2022-10-13T09:13:57.655Z,100191.91
2022-10-13T09:16:35.844Z,100188.19
2022-10-13T09:19:22.532Z,100179.50
2022-10-13T09:21:53.415Z,100179.91
2022-10-13T09:24:26.433Z,100173.22
2022-10-13T09:27:07.093Z,100195.59
2022-10-13T09:29:46.671Z,100176.19
2022-10-13T09:32:18.412Z,100180.81
2022-10-13T09:34:48.514Z,100167.16
2022-10-13T09:37:22.726Z,100182.03
2022-10-13T09:40:15.482Z,100179.19
2022-10-13T09:42:53.183Z,100168.38
2022-10-13T09:45:26.440Z,100176.88
2022-10-13T09:48:01.352Z,100168.09
2022-10-13T09:50:37.660Z,100164.25
2022-10-13T09:53:24.121Z,100168.47
2022-10-13T09:56:11.261Z,100180.16
2022-10-13T10:01:45.004Z,100175.22
2022-10-13T10:04:22.366Z,100182.34
2022-10-13T10:07:00.617Z,100169.81
2022-10-13T10:15:02.454Z,100173.47
2022-10-13T10:24:36.787Z,100169.22
2022-10-13T10:29:04.516Z,100162.78
2022-10-13T10:32:59.982Z,100172.47
2022-10-13T10:58:58.267Z,100195.56
2022-10-13T11:02:58.008Z,100182.19
2022-10-13T11:06:38.165Z,100198.03
2022-10-13T11:09:08.550Z,100192.47
2022-10-13T11:11:42.555Z,100196.22
2022-10-13T11:14:37.525Z,100189.34
2022-10-13T11:17:21.530Z,100199.41
2022-10-13T11:19:55.037Z,100195.75
2022-10-13T11:22:26.589Z,100193.03
2022-10-13T11:25:00.456Z,100199.03
2022-10-13T11:27:48.778Z,100198.31
2022-10-13T11:30:43.990Z,100204.91
2022-10-13T11:33:53.130Z,100213.91
2022-10-13T11:36:40.936Z,100216.28
2022-10-13T11:39:59.571Z,100203.28
2022-10-13T11:43:16.083Z,100193.56
2022-10-13T11:46:21.285Z,100207.53
2022-10-13T11:49:16.185Z,100193.56
2022-10-13T11:52:15.229Z,100188.34
2022-10-13T11:54:52.159Z,100185.28
2022-10-13T11:57:23.973Z,100192.31
2022-10-13T11:59:56.159Z,100184.97
2022-10-13T12:02:33.563Z,100185.44
2022-10-13T12:05:09.877Z,100190.34
2022-10-13T12:07:44.533Z,100192.34
2022-10-13T12:10:22.529Z,100189.44
2022-10-13T12:12:53.134Z,100181.34
2022-10-13T12:15:39.129Z,100187.28
2022-10-13T12:18:24.092Z,100196.03
2022-10-13T12:20:56.820Z,100188.09
2022-10-13T12:23:28.773Z,100189.03
2022-10-13T12:26:00.386Z,100179.84
2022-10-13T12:28:32.260Z,100182.31
2022-10-13T12:31:02.785Z,100196.69
2022-10-13T12:33:35.677Z,100202.84
2022-10-13T12:36:20.135Z,100197.34
2022-10-13T12:38:52.922Z,100195.22
2022-10-13T12:41:28.360Z,100198.88
2022-10-13T12:44:01.092Z,100196.13
2022-10-13T12:46:41.540Z,100193.69
2022-10-13T12:49:21.956Z,100198.56
2022-10-13T12:51:56.524Z,100206.53
2022-10-13T12:54:34.289Z,100193.41
2022-10-13T12:57:09.532Z,100205.13
2022-10-13T12:59:44.086Z,100212.47
2022-10-13T13:02:22.102Z,100215.38
2022-10-13T13:04:51.976Z,100211.69
2022-10-13T13:07:34.253Z,100211.38
2022-10-13T13:10:21.320Z,100212.88
2022-10-13T13:12:55.783Z,100214.09
2022-10-13T13:15:44.234Z,100217.91
2022-10-13T13:18:47.663Z,100223.69
2022-10-13T13:21:22.259Z,100224.13
2022-10-13T13:23:56.398Z,100226.53
2022-10-13T13:26:57.873Z,100224.53
2022-10-13T13:30:05.773Z,100225.88
2022-10-13T13:33:29.507Z,100223.75
2022-10-13T13:36:53.522Z,100222.50
2022-10-13T13:39:46.920Z,100220.91
2022-10-13T13:42:25.402Z,100222.34
2022-10-13T13:45:01.403Z,100227.59
2022-10-13T13:47:56.874Z,100239.84
2022-10-13T13:50:35.992Z,100227.00
2022-10-13T13:53:08.564Z,100233.78
2022-10-13T13:55:45.664Z,100234.72
2022-10-13T13:58:49.479Z,100232.66
2022-10-13T14:01:20.568Z,100247.41
2022-10-13T14:03:50.908Z,100250.78
2022-10-13T14:06:23.959Z,100248.97
2022-10-13T14:08:56.112Z,100246.09
2022-10-13T14:11:29.554Z,100251.97
2022-10-13T14:14:02.323Z,100252.53
2022-10-13T14:16:33.620Z,100258.53
2022-10-13T14:19:12.526Z,100257.28
2022-10-13T14:21:46.940Z,100253.16
2022-10-13T14:28:24.700Z,100277.41
2022-10-13T14:30:59.108Z,100259.41
2022-10-13T14:33:30.808Z,100258.22
2022-10-13T14:36:02.522Z,100261.81
2022-10-13T14:38:33.877Z,100269.97
2022-10-13T14:41:12.223Z,100271.94
2022-10-13T14:43:50.770Z,100261.69
2022-10-13T14:46:58.242Z,100271.41
2022-10-13T15:10:47.200Z,100293.56
2022-10-13T15:13:19.202Z,100305.31
2022-10-13T15:16:05.010Z,100296.88
2022-10-13T15:19:02.807Z,100302.03
2022-10-13T15:21:38.143Z,100301.66
2022-10-13T15:24:15.129Z,100312.31
2022-10-13T15:26:49.100Z,100316.38
2022-10-13T15:30:10.422Z,100315.66
2022-10-13T15:32:42.932Z,100315.66
2022-10-13T15:35:13.871Z,100310.31
2022-10-13T15:37:45.281Z,100307.56
2022-10-13T15:40:16.657Z,100312.00
2022-10-13T15:43:01.128Z,100313.28
2022-10-13T15:45:33.194Z,100316.22
2022-10-13T15:48:03.540Z,100309.03
2022-10-13T15:50:39.467Z,100308.28
2022-10-13T15:53:36.177Z,100302.00
2022-10-13T15:59:07.154Z,100307.91
2022-10-13T16:01:37.072Z,100304.56
2022-10-13T16:04:07.529Z,100301.06
2022-10-13T16:06:39.176Z,100308.81
2022-10-13T16:09:09.466Z,100308.81
2022-10-13T16:11:44.192Z,100311.34
2022-10-13T16:14:15.691Z,100301.94
2022-10-13T16:16:45.910Z,100306.72
2022-10-13T16:19:23.414Z,100308.94
2022-10-13T16:22:18.224Z,100309.09
2022-10-13T16:24:53.739Z,100307.97
2022-10-13T16:27:31.383Z,100307.03
2022-10-13T16:30:09.260Z,100303.84
2022-10-13T16:32:42.631Z,100309.94
2022-10-13T16:35:19.825Z,100304.38
2022-10-13T16:37:57.070Z,100311.94
2022-10-13T16:40:32.089Z,100310.44
2022-10-13T16:43:18.901Z,100311.94
2022-10-13T16:46:01.011Z,100318.53
2022-10-13T16:49:01.939Z,100317.81
2022-10-13T16:51:44.640Z,100311.78
2022-10-13T16:54:18.509Z,100320.81
2022-10-13T16:57:14.687Z,100313.28
2022-10-13T16:59:50.046Z,100315.69
2022-10-13T17:02:26.357Z,100319.75
2022-10-13T17:04:59.604Z,100319.56
2022-10-13T17:07:30.835Z,100314.56
2022-10-13T17:10:22.910Z,100316.06
2022-10-13T17:13:29.344Z,100320.28
2022-10-13T17:16:29.755Z,100315.13
2022-10-13T17:19:48.971Z,100311.59
2022-10-13T17:22:23.853Z,100312.25
2022-10-13T17:24:57.808Z,100303.56
2022-10-13T17:30:58.293Z,100305.75
2022-10-13T17:33:28.861Z,100301.00
2022-10-13T17:36:02.881Z,100311.84
2022-10-13T17:38:34.363Z,100303.56
2022-10-13T17:41:07.774Z,100303.19
2022-10-13T17:43:46.646Z,100309.41
2022-10-13T17:46:38.393Z,100308.22
2022-10-13T17:49:22.442Z,100306.88
2022-10-13T17:51:56.239Z,100319.72
2022-10-13T17:54:26.429Z,100316.59
2022-10-13T17:56:59.315Z,100316.53
2022-10-13T17:59:30.162Z,100317.28
2022-10-13T18:02:06.002Z,100313.28
2022-10-13T18:05:11.992Z,100325.13
2022-10-13T18:11:16.391Z,100326.84
2022-10-13T18:13:52.613Z,100332.22
2022-10-13T18:16:25.405Z,100328.97
2022-10-13T18:19:00.753Z,100327.84
2022-10-13T18:21:35.330Z,100325.19
2022-10-13T18:24:14.491Z,100325.72
2022-10-13T18:39:45.629Z,100324.84
2022-10-13T18:42:29.778Z,100320.97
2022-10-13T18:45:01.561Z,100327.41
2022-10-13T18:47:34.898Z,100332.41
2022-10-13T18:50:07.335Z,100328.38
2022-10-13T18:52:38.637Z,100333.75
2022-10-13T18:55:10.288Z,100330.03
2022-10-13T18:57:41.448Z,100330.59
2022-10-13T19:00:12.098Z,100336.41
2022-10-13T19:02:42.070Z,100326.09
2022-10-13T19:05:11.992Z,100329.03
2022-10-13T19:07:43.683Z,100325.09
2022-10-13T19:10:15.383Z,100333.00
2022-10-13T19:12:45.534Z,100339.88
2022-10-13T19:15:15.395Z,100340.09
2022-10-13T19:17:45.000Z,100337.31
2022-10-13T19:20:17.778Z,100344.25
2022-10-13T19:22:47.314Z,100334.44
2022-10-13T19:25:21.360Z,100335.06
2022-10-13T19:27:51.819Z,100341.03
2022-10-13T19:30:21.319Z,100335.78
2022-10-13T19:32:56.316Z,100337.56
2022-10-13T19:35:26.380Z,100337.84
2022-10-13T19:38:00.038Z,100336.34
2022-10-13T19:40:33.059Z,100337.84
2022-10-13T19:43:04.108Z,100338.50
2022-10-13T19:45:35.985Z,100332.97
2022-10-13T19:48:12.572Z,100345.81
2022-10-13T19:50:44.038Z,100342.84
2022-10-13T19:53:18.702Z,100341.75
2022-10-13T19:55:54.695Z,100340.84
2022-10-13T19:58:30.473Z,100339.38
2022-10-13T20:01:04.324Z,100344.66
2022-10-13T20:03:34.554Z,100345.00
2022-10-13T20:06:11.528Z,100350.78
2022-10-13T20:08:47.307Z,100351.84
2022-10-13T20:11:24.098Z,100355.53
2022-10-13T20:13:56.660Z,100353.69
2022-10-13T20:16:27.467Z,100347.09
2022-10-13T20:19:03.714Z,100343.81
2022-10-13T20:21:39.784Z,100347.50
2022-10-13T20:24:16.908Z,100345.63
2022-10-13T20:26:52.112Z,100349.19
2022-10-13T20:29:27.940Z,100349.13
2022-10-13T20:32:17.116Z,100345.88
2022-10-13T20:34:50.533Z,100347.97
2022-10-13T20:37:21.834Z,100348.94
2022-10-13T20:39:55.917Z,100342.75
2022-10-13T20:42:27.744Z,100346.69
2022-10-13T20:44:57.470Z,100347.25
2022-10-13T20:47:29.227Z,100351.31
2022-10-13T20:49:58.761Z,100345.88
2022-10-13T20:52:32.135Z,100350.66
2022-10-13T20:55:01.645Z,100357.63
2022-10-13T20:57:38.517Z,100349.94
2022-10-13T21:00:12.629Z,100353.63
2022-10-13T21:02:42.535Z,100355.84
2022-10-13T21:05:12.096Z,100346.28
2022-10-13T21:07:44.113Z,100367.28
2022-10-13T21:10:15.689Z,100364.00
2022-10-13T21:12:46.597Z,100364.75
2022-10-13T21:15:16.196Z,100370.66
2022-10-13T21:17:45.590Z,100360.91
2022-10-13T21:20:16.307Z,100357.06
2022-10-13T21:22:45.582Z,100356.00
2022-10-13T21:25:17.269Z,100357.97
2022-10-13T21:27:49.105Z,100349.69
2022-10-13T21:30:19.509Z,100352.25
2022-10-13T21:32:48.757Z,100365.34
2022-10-13T21:35:18.671Z,100360.91
2022-10-13T21:37:49.266Z,100361.13
2022-10-13T21:40:19.284Z,100361.13
2022-10-13T21:42:51.010Z,100357.28
2022-10-13T21:45:20.625Z,100363.50
2022-10-13T21:47:51.400Z,100367.22
2022-10-13T21:50:25.129Z,100363.53
2022-10-13T21:52:57.510Z,100354.53
2022-10-13T21:55:28.997Z,100353.78
2022-10-13T21:58:05.364Z,100350.84
2022-10-13T22:00:38.076Z,100356.19
2022-10-13T22:03:09.287Z,100357.84
2022-10-13T22:05:39.639Z,100364.66
2022-10-13T22:08:09.166Z,100362.09
2022-10-13T22:10:44.474Z,100365.03
2022-10-13T22:13:15.579Z,100365.59
2022-10-13T22:15:50.619Z,100376.41
2022-10-13T22:18:38.508Z,100367.94
2022-10-13T22:21:12.125Z,100364.66
2022-10-13T22:23:42.249Z,100364.84
2022-10-13T22:26:12.391Z,100365.03
2022-10-13T22:28:43.188Z,100366.16
2022-10-13T22:31:14.247Z,100364.13
2022-10-13T22:33:44.959Z,100367.84
2022-10-13T22:36:17.285Z,100371.50
2022-10-13T22:38:48.094Z,100371.16
2022-10-13T22:41:19.414Z,100377.97
2022-10-13T22:43:52.854Z,100371.91
2022-10-13T22:46:23.737Z,100370.09
2022-10-13T22:48:54.997Z,100370.63
2022-10-13T22:51:25.983Z,100370.78
2022-10-13T22:53:55.767Z,100373.38
2022-10-13T22:56:26.795Z,100371.91
2022-10-13T22:58:59.560Z,100366.03
2022-10-13T23:01:30.201Z,100372.47
2022-10-13T23:04:00.119Z,100378.53
2022-10-13T23:06:30.999Z,100380.19
2022-10-13T23:09:03.202Z,100384.81
2022-10-13T23:11:32.465Z,100380.59
2022-10-13T23:14:06.989Z,100381.69
2022-10-13T23:16:37.400Z,100388.13
2022-10-13T23:19:07.672Z,100380.59
2022-10-13T23:21:36.891Z,100389.25
2022-10-13T23:24:10.731Z,100391.09
2022-10-13T23:26:43.726Z,100390.34
2022-10-13T23:29:15.235Z,100385.19
2022-10-13T23:31:44.373Z,100383.91
2022-10-13T23:34:13.823Z,100389.63
2022-10-13T23:36:44.132Z,100397.38
2022-10-13T23:39:14.450Z,100388.16
2022-10-13T23:41:44.442Z,100389.06
2022-10-13T23:44:14.969Z,100386.69
2022-10-13T23:46:46.526Z,100387.97
2022-10-13T23:49:20.012Z,100382.63
2022-10-13T23:51:49.625Z,100390.38
2022-10-13T23:54:20.263Z,100386.88
2022-10-13T23:56:49.662Z,100387.09
2022-10-13T23:59:20.401Z,100391.50
